Bugra Tomba — TCEJ — position and weather

sailwx.info

Track history (hours):
 
Tides and Currents Weather Stations Pressure Air Temp Water Temp Dewpoint Dewpoint Depression Visibility Wind Speed Wind Dir Waves Ship Positions

Bugra Tomba

Last reported at 2018-May-16 20:24 UTC. Time now 2018-May-23 00:52 UTC.
Position N 36°48' E 034°39'.

Length 95 m; draft 3.6 m.

Type: Cargo ship. MMSI: 271000025.

Date/timePositionNaut miles runAvg speedWind from/ knotsBaromVisibWave heightAir tempDewpointWater temp
2018-May-16 20:24N 36°48' E 034°39'0 0.0
2018-May-16 20:00N 36°48' E 034°39'0 0.0
2018-May-16 15:00N 36°48' E 034°39'0 0.0
2018-May-16 14:28N 36°48' E 034°39'0 0.1
2018-May-16 13:32N 36°48' E 034°39'0 0.9
2018-May-16 13:29N 36°48' E 034°39'0 0.1
2018-May-16 13:00N 36°48' E 034°39'0 0.1
2018-May-16 12:24N 36°48' E 034°39'0 0.0
2018-May-16 11:53N 36°48' E 034°39'0 0.0
2018-May-16 11:21N 36°48' E 034°39'0 0.0
2018-May-16 10:57N 36°48' E 034°39'0 0.1
2018-May-16 10:30N 36°48' E 034°39'  
2018-May-08 11:29N 36°09' E 031°03'4 7.5
2018-May-08 10:53N 36°09' E 030°57'7 7.3
2018-May-08 09:53N 36°09' E 030°48'3 7.4
2018-May-08 09:26N 36°09' E 030°44'3 7.5
2018-May-08 09:00N 36°09' E 030°40'4 7.6
2018-May-08 08:30N 36°09' E 030°35'4 7.6
2018-May-08 08:00N 36°09' E 030°31'4 7.4
2018-May-08 07:30N 36°09' E 030°26'  
Track history (hours):
 
Tides and Currents Weather Stations Pressure Air Temp Water Temp Dewpoint Dewpoint Depression Visibility Wind Speed Wind Dir Waves Ship Positions

Bugra Tomba

Last reported at 2018-May-16 20:24 UTC. Time now 2018-May-23 00:52 UTC.
Position N 36°48' E 034°39'.

Length 95 m; draft 3.6 m.

Type: Cargo ship. MMSI: 271000025.

Date/timePositionNaut miles runAvg speedWind from/ knotsBaromVisibWave heightAir tempDewpointWater temp
2018-May-16 20:24N 36°48' E 034°39'0 0.0
2018-May-16 20:00N 36°48' E 034°39'0 0.0
2018-May-16 15:00N 36°48' E 034°39'0 0.0
2018-May-16 14:28N 36°48' E 034°39'0 0.1
2018-May-16 13:32N 36°48' E 034°39'0 0.9
2018-May-16 13:29N 36°48' E 034°39'0 0.1
2018-May-16 13:00N 36°48' E 034°39'0 0.1
2018-May-16 12:24N 36°48' E 034°39'0 0.0
2018-May-16 11:53N 36°48' E 034°39'0 0.0
2018-May-16 11:21N 36°48' E 034°39'0 0.0
2018-May-16 10:57N 36°48' E 034°39'0 0.1
2018-May-16 10:30N 36°48' E 034°39'  
2018-May-08 11:29N 36°09' E 031°03'4 7.5
2018-May-08 10:53N 36°09' E 030°57'7 7.3
2018-May-08 09:53N 36°09' E 030°48'3 7.4
2018-May-08 09:26N 36°09' E 030°44'3 7.5
2018-May-08 09:00N 36°09' E 030°40'4 7.6
2018-May-08 08:30N 36°09' E 030°35'4 7.6
2018-May-08 08:00N 36°09' E 030°31'4 7.4
2018-May-08 07:30N 36°09' E 030°26'  

Dump ship's entire track history